Terminal Aerodrome Forecast
Issued by NWS Twin Cities, MN

Home | Current Version | Previous Version | Graphics & Text | Print | Product List | Glossary On
Versions: 1 2 3 4 5 6 7 8 9 10 11 12 13 14 15
882
FTUS43 KMPX 210520
TAFSTC
TAF
KSTC 210520Z 2106/2206 06007KT 2SM -DZ OVC005
     FM211000 36007KT 2SM -DZ BR OVC003
     FM211600 31010G16KT P6SM VCSH OVC007
     FM211900 30012G20KT P6SM VCSH SCT010 OVC020
     FM220000 29008KT P6SM BKN025=

USA.gov is the U.S. government's official web portal to all federal, state and local government web resources and services.